Time;durP1;ratioP1;P1;durP2;ratioP2;P2;SDS_P1;SDS_P2;PMS_P1;PMS_P2;Temp;Humidity;BMP_temperature;BMP_pressure;BME280_temperature;BME280_humidity;BME280_pressure;Samples;Min_cycle;Max_cycle;Signal;HPM_P1;HPM_P2
2022/04/08 00:01:25;;;;;;;7.78;1.30;;;5.80;99.90;;;;;;5118891;28;20044;-80
2022/04/08 00:03:54;;;;;;;8.48;1.45;;;5.70;99.90;;;;;;5114280;27;20044;-82
2022/04/08 00:06:20;;;;;;;8.18;1.38;;;5.80;99.90;;;;;;5115552;28;20110;-80
2022/04/08 00:08:47;;;;;;;9.07;1.20;;;5.80;99.90;;;;;;5117800;28;20063;-81
2022/04/08 00:11:13;;;;;;;3.22;1.17;;;5.80;99.90;;;;;;5117010;28;20506;-80
2022/04/08 00:13:38;;;;;;;6.35;0.80;;;5.70;99.90;;;;;;5121118;27;20055;-81
2022/04/08 00:16:05;;;;;;;7.07;1.37;;;5.70;99.90;;;;;;5100008;28;20046;-82
2022/04/08 00:18:31;;;;;;;4.00;0.80;;;5.70;99.90;;;;;;5117113;28;20051;-81
2022/04/08 00:20:57;;;;;;;6.50;0.98;;;5.60;99.90;;;;;;5120667;28;20035;-81
2022/04/08 00:23:23;;;;;;;5.47;1.10;;;5.60;99.90;;;;;;5117185;28;20043;-80
2022/04/08 00:25:48;;;;;;;2.72;0.73;;;5.60;99.90;;;;;;5119367;28;20051;-81
2022/04/08 00:28:14;;;;;;;4.10;0.88;;;5.50;99.90;;;;;;5117505;28;20114;-79
2022/04/08 00:30:40;;;;;;;1.93;0.70;;;5.30;99.90;;;;;;5125514;28;20047;-80
2022/04/08 00:33:05;;;;;;;4.67;0.90;;;5.10;99.90;;;;;;5120559;28;20120;-80
2022/04/08 00:35:31;;;;;;;5.65;1.00;;;5.00;99.90;;;;;;5115265;28;20289;-81
2022/04/08 00:37:57;;;;;;;2.67;0.90;;;4.90;99.90;;;;;;5105823;28;20043;-80
2022/04/08 00:40:23;;;;;;;4.72;0.90;;;4.90;99.90;;;;;;5114530;28;20108;-81
2022/04/08 00:42:49;;;;;;;3.15;0.80;;;4.90;99.90;;;;;;5105050;28;20032;-81
2022/04/08 00:45:15;;;;;;;4.10;0.95;;;5.10;99.90;;;;;;5117295;28;20447;-81
2022/04/08 00:47:41;;;;;;;3.67;0.77;;;4.90;99.90;;;;;;5104925;28;20099;-81
2022/04/08 00:50:11;;;;;;;2.63;1.10;;;4.80;99.90;;;;;;5115112;28;20043;-81
2022/04/08 00:52:41;;;;;;;3.60;1.25;;;4.90;99.90;;;;;;5118076;28;20039;-80
2022/04/08 00:55:08;;;;;;;6.43;1.30;;;4.90;99.90;;;;;;5115941;28;20096;-80
2022/04/08 00:57:34;;;;;;;5.93;1.05;;;4.80;99.90;;;;;;5105041;28;20032;-80
2022/04/08 01:00:09;;;;;;;6.13;1.30;;;4.90;99.90;;;;;;5100857;28;20031;-80
2022/04/08 01:02:35;;;;;;;12.27;1.98;;;4.90;99.90;;;;;;5111660;28;20062;-80
2022/04/08 01:05:01;;;;;;;10.73;1.70;;;4.80;99.90;;;;;;5123428;27;20038;-80
2022/04/08 01:07:27;;;;;;;8.48;1.83;;;5.10;99.90;;;;;;5106279;27;20035;-81
2022/04/08 01:09:54;;;;;;;11.13;2.10;;;4.60;99.90;;;;;;5126092;27;20035;-81
2022/04/08 01:12:19;;;;;;;10.00;2.10;;;5.10;99.90;;;;;;5120894;27;20035;-81
2022/04/08 01:14:45;;;;;;;7.50;2.08;;;4.50;99.90;;;;;;5128274;27;20072;-81
2022/04/08 01:17:11;;;;;;;11.13;1.95;;;4.40;99.90;;;;;;5126422;27;20052;-80
2022/04/08 01:19:37;;;;;;;12.07;2.15;;;4.40;99.90;;;;;;5123374;27;20062;-81
2022/04/08 01:22:04;;;;;;;10.75;1.40;;;4.70;99.90;;;;;;5113592;27;20051;-81
2022/04/08 01:24:34;;;;;;;7.22;1.50;;;4.40;99.90;;;;;;5122150;27;20039;-81
2022/04/08 01:27:02;;;;;;;9.57;1.48;;;4.40;99.90;;;;;;5111062;27;20053;-81
2022/04/08 01:29:28;;;;;;;11.35;1.80;;;4.40;99.90;;;;;;5122685;27;20071;-82
2022/04/08 01:31:54;;;;;;;7.72;1.30;;;4.40;99.90;;;;;;5117612;27;20070;-81
2022/04/08 01:34:20;;;;;;;10.30;1.70;;;4.40;99.90;;;;;;5115325;27;20512;-82
2022/04/08 01:36:45;;;;;;;5.07;1.33;;;4.40;99.90;;;;;;5122104;27;20096;-82
2022/04/08 01:39:11;;;;;;;6.67;1.20;;;4.40;99.90;;;;;;5106995;27;20075;-81
2022/04/08 01:41:37;;;;;;;7.22;1.67;;;4.50;99.90;;;;;;5113803;27;20282;-81
2022/04/08 01:44:02;;;;;;;8.80;1.17;;;4.50;99.90;;;;;;5113919;27;20058;-81
2022/04/08 01:46:28;;;;;;;4.65;1.10;;;4.50;99.90;;;;;;5096795;28;20046;-81
2022/04/08 01:48:55;;;;;;;4.50;1.40;;;4.60;99.90;;;;;;5117300;27;20100;-81
2022/04/08 01:51:24;;;;;;;5.85;1.23;;;4.60;99.90;;;;;;5080505;27;20285;-82
2022/04/08 01:53:50;;;;;;;5.22;1.38;;;4.60;99.90;;;;;;5099900;28;20042;-82
2022/04/08 01:56:16;;;;;;;6.05;1.50;;;4.60;99.90;;;;;;5115067;27;20055;-81
2022/04/08 01:58:41;;;;;;;5.53;1.30;;;5.10;99.90;;;;;;5119533;27;20047;-81
2022/04/08 02:01:07;;;;;;;6.57;1.53;;;4.70;99.90;;;;;;5107664;27;20042;-81
2022/04/08 02:03:33;;;;;;;9.02;1.55;;;4.70;99.90;;;;;;5111356;27;20039;-81
2022/04/08 02:05:59;;;;;;;6.07;1.45;;;4.70;99.90;;;;;;5120224;27;20031;-81
2022/04/08 02:08:25;;;;;;;9.35;1.60;;;5.40;99.90;;;;;;5102859;28;20521;-81
2022/04/08 02:10:53;;;;;;;10.07;1.75;;;4.70;99.90;;;;;;5114770;27;20039;-81
2022/04/08 02:13:19;;;;;;;11.07;1.67;;;4.70;99.90;;;;;;5104793;28;20568;-81
2022/04/08 02:15:46;;;;;;;;;;;4.70;99.90;;;;;;5120684;27;20039;-81
2022/04/08 02:18:13;;;;;;;11.98;1.55;;;4.70;99.90;;;;;;5105172;27;19921;-81
2022/04/08 02:20:39;;;;;;;10.85;1.50;;;4.70;99.90;;;;;;5099651;27;20035;-81
2022/04/08 02:23:05;;;;;;;11.10;1.90;;;4.80;99.90;;;;;;5119216;27;20039;-82
2022/04/08 02:25:32;;;;;;;10.93;1.98;;;4.70;99.90;;;;;;5124065;27;20096;-80
2022/04/08 02:27:58;;;;;;;8.00;1.98;;;4.80;99.90;;;;;;5116709;27;20447;-82
2022/04/08 02:30:24;;;;;;;6.93;1.40;;;4.80;99.90;;;;;;5119515;27;20382;-81
2022/04/08 02:32:50;;;;;;;9.68;1.42;;;4.80;99.90;;;;;;5111983;27;20092;-83
2022/04/08 02:35:17;;;;;;;4.82;1.33;;;4.70;99.90;;;;;;5122666;27;20039;-81
2022/04/08 02:37:43;;;;;;;7.53;1.20;;;5.40;99.90;;;;;;5123024;27;20036;-82
2022/04/08 02:40:09;;;;;;;7.15;1.33;;;4.50;99.90;;;;;;5119399;27;20099;-82
2022/04/08 02:42:35;;;;;;;7.10;1.15;;;4.40;99.90;;;;;;5116050;27;20109;-82
2022/04/08 02:45:00;;;;;;;10.25;1.65;;;4.40;99.90;;;;;;5102080;28;20027;-82
2022/04/08 02:47:26;;;;;;;6.38;1.42;;;5.00;99.90;;;;;;5117940;27;20058;-82
2022/04/08 02:49:52;;;;;;;5.88;1.35;;;4.30;99.90;;;;;;5101450;27;20046;-81
2022/04/08 02:52:17;;;;;;;5.27;1.50;;;4.30;99.90;;;;;;5115125;27;20036;-82
2022/04/08 02:54:43;;;;;;;5.47;1.27;;;4.30;99.90;;;;;;5121154;27;20042;-82
2022/04/08 02:57:09;;;;;;;7.50;1.33;;;4.20;99.90;;;;;;5108022;27;20506;-82
2022/04/08 02:59:34;;;;;;;7.40;1.60;;;4.70;99.90;;;;;;5121824;27;20403;-82
2022/04/08 03:02:00;;;;;;;6.45;1.98;;;4.20;99.90;;;;;;5116088;27;20710;-82
2022/04/08 03:04:26;;;;;;;9.35;1.50;;;4.50;99.90;;;;;;5119694;27;20036;-81
2022/04/08 03:06:54;;;;;;;7.63;1.75;;;4.10;99.90;;;;;;5123511;27;20027;-82
2022/04/08 03:09:21;;;;;;;8.57;1.95;;;4.10;99.90;;;;;;5114314;27;20040;-80
2022/04/08 03:11:47;;;;;;;;;;;4.50;99.90;;;;;;5116524;27;20035;-81
2022/04/08 03:14:12;;;;;;;;;;;4.70;99.90;;;;;;5130681;27;20324;-81
2022/04/08 03:16:38;;;;;;;;;;;4.10;99.90;;;;;;5118251;27;19965;-81
2022/04/08 03:19:03;;;;;;;;;;;4.10;99.90;;;;;;5121356;27;20018;-81
2022/04/08 03:21:30;;;;;;;;;;;4.00;99.90;;;;;;5122310;27;20347;-82
2022/04/08 03:23:56;;;;;;;;;;;3.90;99.90;;;;;;5118592;27;19926;-81
2022/04/08 03:26:22;;;;;;;;;;;4.50;99.90;;;;;;5116315;27;20655;-81
2022/04/08 03:28:49;;;;;;;;;;;3.90;99.90;;;;;;5121481;27;19915;-81
2022/04/08 03:31:14;;;;;;;;;;;4.20;99.90;;;;;;5122374;27;19915;-81
2022/04/08 03:33:40;;;;;;;;;;;3.90;99.90;;;;;;5120304;27;19915;-82
2022/04/08 03:36:06;;;;;;;;;;;4.30;99.90;;;;;;5128257;27;19922;-82
2022/04/08 03:38:31;;;;;;;;;;;4.10;99.90;;;;;;5118708;27;20048;-82
2022/04/08 03:40:57;;;;;;;;;;;4.10;99.90;;;;;;5113308;27;19916;-82
2022/04/08 03:43:22;;;;;;;;;;;4.10;99.90;;;;;;5123005;27;19972;-82
2022/04/08 03:45:48;;;;;;;;;;;4.20;99.90;;;;;;5121360;27;19968;-82
2022/04/08 03:48:14;;;;;;;;;;;4.20;99.90;;;;;;5118238;27;19915;-82
2022/04/08 03:50:39;;;;;;;;;;;4.20;99.90;;;;;;5096293;27;20367;-82
2022/04/08 03:53:09;;;;;;;;;;;4.30;99.90;;;;;;5121723;27;19961;-82
2022/04/08 03:55:35;;;;;;;;;;;4.30;99.90;;;;;;5106588;28;19998;-82
2022/04/08 03:58:00;;;;;;;;;;;4.60;99.90;;;;;;5116230;27;20347;-82
2022/04/08 04:00:26;;;;;;;;;;;4.20;99.90;;;;;;5124891;27;20383;-82
2022/04/08 04:02:52;;;;;;;;;;;3.80;99.90;;;;;;5120220;27;19928;-82
2022/04/08 04:05:17;;;;;;;;;;;3.50;99.90;;;;;;5117121;28;19922;-83
2022/04/08 04:07:43;;;;;;;;;;;3.40;99.90;;;;;;5122861;28;20302;-83
2022/04/08 04:10:08;;;;;;;;;;;3.30;99.90;;;;;;5112865;28;19976;-83
2022/04/08 04:12:34;;;;;;;;;;;3.30;99.90;;;;;;5123542;28;19946;-82
2022/04/08 04:15:00;;;;;;;;;;;3.20;99.90;;;;;;5081110;28;19987;-81
2022/04/08 04:17:28;;;;;;;;;;;3.20;99.90;;;;;;5128089;28;19923;-82
2022/04/08 04:19:53;;;;;;;;;;;3.70;99.90;;;;;;5120875;28;20410;-83
2022/04/08 04:22:19;;;;;;;;;;;3.40;99.90;;;;;;5121748;28;19969;-83
2022/04/08 04:24:45;;;;;;;;;;;3.80;99.90;;;;;;5116246;28;19925;-84
2022/04/08 04:27:10;;;;;;;;;;;3.30;99.90;;;;;;5117628;28;19920;-82
2022/04/08 04:29:36;;;;;;;;;;;3.40;99.90;;;;;;5100831;28;19968;-83
2022/04/08 04:32:03;;;;;;;;;;;3.30;99.90;;;;;;5120669;28;19930;-82
2022/04/08 04:34:29;;;;;;;;;;;3.40;99.90;;;;;;5095947;28;19916;-82
2022/04/08 04:36:54;;;;;;;;;;;3.30;99.90;;;;;;5126248;28;19922;-82
2022/04/08 04:39:20;;;;;;;;;;;3.30;99.90;;;;;;5117357;27;19969;-83
2022/04/08 04:41:45;;;;;;;;;;;3.40;99.90;;;;;;5119362;27;20413;-83
2022/04/08 04:44:11;;;;;;;;;;;4.30;99.90;;;;;;5112673;27;19919;-81
2022/04/08 04:46:37;;;;;;;;;;;3.90;99.90;;;;;;5127463;27;19963;-81
2022/04/08 04:49:02;;;;;;;;;;;4.10;99.90;;;;;;5119303;27;19923;-81
2022/04/08 04:51:30;;;;;;;;;;;3.30;99.90;;;;;;5127360;27;20410;-82
2022/04/08 04:53:59;;;;;;;;;;;4.30;99.90;;;;;;5124222;27;19955;-82
2022/04/08 04:56:26;;;;;;;;;;;3.50;99.90;;;;;;5127245;27;19970;-82
2022/04/08 04:58:51;;;;;;;;;;;3.80;99.90;;;;;;5122062;27;20282;-82
2022/04/08 05:01:17;;;;;;;;;;;4.20;99.90;;;;;;5117119;27;19915;-82
2022/04/08 05:03:42;;;;;;;;;;;3.70;99.90;;;;;;5121250;27;19972;-81
2022/04/08 05:06:08;;;;;;;;;;;3.70;99.90;;;;;;5114278;27;19998;-82
2022/04/08 05:08:34;;;;;;;;;;;3.70;99.90;;;;;;5122164;27;19915;-82
2022/04/08 05:11:00;;;;;;;;;;;4.40;99.90;;;;;;5118267;27;19915;-82
2022/04/08 05:13:25;;;;;;;;;;;3.70;99.90;;;;;;5119194;27;19915;-82
2022/04/08 05:15:51;;;;;;;;;;;3.70;99.90;;;;;;5103718;27;19915;-82
2022/04/08 05:18:16;;;;;;;;;;;3.70;99.90;;;;;;5131816;27;19997;-85
2022/04/08 05:20:42;;;;;;;;;;;3.90;99.90;;;;;;5121001;27;19926;-84
2022/04/08 05:23:07;;;;;;;;;;;5.30;99.90;;;;;;5109332;27;19919;-82
2022/04/08 05:25:33;;;;;;;;;;;3.80;99.90;;;;;;5123944;27;19922;-82
2022/04/08 05:27:59;;;;;;;;;;;3.80;99.90;;;;;;5120771;27;19926;-83
2022/04/08 05:30:24;;;;;;;;;;;3.80;99.90;;;;;;5133473;27;19922;-82
2022/04/08 05:32:50;;;;;;;;;;;4.90;99.90;;;;;;5120714;27;19915;-82
2022/04/08 05:35:16;;;;;;;;;;;4.00;99.90;;;;;;5121175;27;19915;-83
2022/04/08 05:37:43;;;;;;;;;;;4.60;99.90;;;;;;5120333;27;19916;-83
2022/04/08 05:40:20;;;;;;;;;;;4.00;99.90;;;;;;5103756;28;19915;-82
2022/04/08 05:42:49;;;;;;;;;;;4.00;99.90;;;;;;5119952;27;19916;-83
2022/04/08 05:45:16;;;;;;;;;;;4.00;99.90;;;;;;5113764;27;19995;-83
2022/04/08 05:47:42;;;;;;;;;;;4.20;99.90;;;;;;5115841;27;20631;-83
2022/04/08 05:50:08;;;;;;;;;;;4.20;99.90;;;;;;5125195;27;19970;-82
2022/04/08 05:52:34;;;;;;;;;;;4.30;99.90;;;;;;5106190;27;19915;-82
2022/04/08 05:54:59;;;;;;;;;;;4.40;99.90;;;;;;5127432;27;19959;-82
2022/04/08 05:57:25;;;;;;;;;;;4.50;99.90;;;;;;5120977;27;19915;-82
2022/04/08 05:59:57;;;;;;;;;;;4.60;99.90;;;;;;5120427;27;20002;-83
2022/04/08 06:02:24;;;;;;;;;;;4.50;99.90;;;;;;5121989;27;20052;-82
2022/04/08 06:04:49;;;;;;;;;;;5.40;99.90;;;;;;5128663;27;20064;-81
2022/04/08 06:07:15;;;;;;;;;;;4.90;99.90;;;;;;5122499;27;19964;-82
2022/04/08 06:09:40;;;;;;;;;;;4.60;99.90;;;;;;5123041;27;20478;-81
2022/04/08 06:12:06;;;;;;;;;;;4.70;99.90;;;;;;5124961;27;19916;-81
2022/04/08 06:14:31;;;;;;;;;;;4.80;99.90;;;;;;5121326;27;19916;-82
2022/04/08 06:16:57;;;;;;;;;;;5.30;99.90;;;;;;5120390;27;19922;-82
2022/04/08 06:19:23;;;;;;;;;;;4.80;99.90;;;;;;5123946;27;19958;-83
2022/04/08 06:21:48;;;;;;;;;;;4.90;99.90;;;;;;5119515;27;19915;-82
2022/04/08 06:24:14;;;;;;;;;;;5.40;99.90;;;;;;5118853;27;20371;-82
2022/04/08 06:26:40;;;;;;;;;;;5.00;99.90;;;;;;5105795;27;19985;-82
2022/04/08 06:29:06;;;;;;;;;;;5.20;99.90;;;;;;5118383;27;19955;-83
2022/04/08 06:31:32;;;;;;;;;;;5.30;99.90;;;;;;5106743;27;19922;-82
2022/04/08 06:34:00;;;;;;;;;;;5.50;99.90;;;;;;5122476;27;19922;-83
2022/04/08 06:36:27;;;;;;;;;;;5.50;99.90;;;;;;5122842;27;20359;-81
2022/04/08 06:38:52;;;;;;;;;;;5.60;99.90;;;;;;5127218;27;19919;-82
2022/04/08 06:41:18;;;;;;;;;;;6.10;99.90;;;;;;5120056;27;19923;-81
2022/04/08 06:43:44;;;;;;;;;;;6.40;99.90;;;;;;5127570;27;19955;-83
2022/04/08 06:46:09;;;;;;;;;;;6.00;99.90;;;;;;5127432;27;19969;-82
2022/04/08 06:48:35;;;;;;;;;;;6.10;99.90;;;;;;5107339;27;19923;-82
2022/04/08 06:51:04;;;;;;;;;;;6.20;99.90;;;;;;5116860;27;20424;-81
2022/04/08 06:53:30;;;;;;;;;;;6.10;99.90;;;;;;5123236;27;19986;-81
2022/04/08 06:55:55;;;;;;;;;;;6.30;99.90;;;;;;5122051;27;20347;-82
2022/04/08 06:58:21;;;;;;;;;;;6.30;99.90;;;;;;5122284;27;19915;-82
2022/04/08 07:00:46;;;;;;;;;;;6.50;99.90;;;;;;5122280;27;19915;-82
2022/04/08 07:03:12;;;;;;;;;;;7.10;99.90;;;;;;5123842;27;20283;-82
2022/04/08 07:05:38;;;;;;;;;;;7.50;99.90;;;;;;5097018;27;19915;-82
2022/04/08 07:08:03;;;;;;;;;;;8.00;99.90;;;;;;5120476;27;19916;-82
2022/04/08 07:10:29;;;;;;;;;;;8.20;99.90;;;;;;5124815;27;20002;-83
2022/04/08 07:12:54;;;;;;;;;;;8.60;99.90;;;;;;5118412;27;19974;-82
2022/04/08 07:15:20;;;;;;;;;;;8.80;99.90;;;;;;5120263;27;19973;-82
2022/04/08 07:17:46;;;;;;;;;;;9.00;99.90;;;;;;5120385;27;20397;-81
2022/04/08 07:20:13;;;;;;;;;;;9.20;99.90;;;;;;5102914;27;19916;-81
2022/04/08 07:22:40;;;;;;;;;;;9.20;99.90;;;;;;5115359;27;20367;-81
2022/04/08 07:25:05;;;;;;;;;;;9.40;99.90;;;;;;5118426;27;19915;-82
2022/04/08 07:27:41;;;;;;;;;;;9.50;99.90;;;;;;5121723;27;19994;-82
2022/04/08 07:30:07;;;;;;;;;;;9.60;99.90;;;;;;5108819;28;19927;-82
2022/04/08 07:32:33;;;;;;;;;;;9.70;99.90;;;;;;5121554;27;19920;-81
2022/04/08 07:34:58;;;;;;;;;;;9.80;99.90;;;;;;5120848;27;19991;-82
2022/04/08 07:37:31;;;;;;;;;;;9.90;99.90;;;;;;5121179;27;19968;-82
2022/04/08 07:39:57;;;;;;;;;;;9.40;99.90;;;;;;5120859;27;20002;-81
2022/04/08 07:42:23;;;;;;;;;;;8.80;99.90;;;;;;5122276;27;19942;-82
2022/04/08 07:44:48;;;;;;;;;;;8.00;99.90;;;;;;5121031;27;19983;-82
2022/04/08 07:47:15;;;;;;;;;;;7.50;99.90;;;;;;5119960;27;19919;-82
2022/04/08 07:49:42;;;;;;;;;;;7.10;99.90;;;;;;5120334;27;20279;-82
2022/04/08 07:52:07;;;;;;;;;;;6.90;99.90;;;;;;5100952;27;19953;-82
2022/04/08 07:54:33;;;;;;;;;;;7.00;99.90;;;;;;5124720;27;20319;-82
2022/04/08 07:56:59;;;;;;;;;;;7.80;99.90;;;;;;5118340;27;20258;-82
2022/04/08 07:59:25;;;;;;;;;;;8.40;99.90;;;;;;5121245;27;19926;-82
2022/04/08 08:01:50;;;;;;;;;;;8.50;99.90;;;;;;5120232;27;19923;-82
2022/04/08 08:04:16;;;;;;;;;;;8.30;99.90;;;;;;5117968;27;20001;-82
2022/04/08 08:06:42;;;;;;;;;;;8.00;99.90;;;;;;5120811;28;20216;-82
2022/04/08 08:09:07;;;;;;;;;;;7.90;99.90;;;;;;5118780;27;20323;-82
2022/04/08 08:11:33;;;;;;;;;;;7.80;99.90;;;;;;5113801;28;19919;-82
2022/04/08 08:13:58;;;;;;;;;;;8.00;99.90;;;;;;5101635;28;19926;-82
2022/04/08 08:16:24;;;;;;;;;;;8.20;99.90;;;;;;5127162;27;19915;-82
2022/04/08 08:18:50;;;;;;;;;;;8.30;99.90;;;;;;5123009;27;19922;-81
2022/04/08 08:21:16;;;;;;;;;;;8.60;99.90;;;;;;5123835;27;19915;-81
2022/04/08 08:23:41;;;;;;;;;;;8.60;99.90;;;;;;5124617;27;19919;-82
2022/04/08 08:26:07;;;;;;;;;;;8.50;99.90;;;;;;5124163;27;19923;-81
2022/04/08 08:28:32;;;;;;;;;;;8.90;99.90;;;;;;5105359;27;19928;-82
2022/04/08 08:30:58;;;;;;;;;;;9.00;99.90;;;;;;5110696;27;19922;-81
2022/04/08 08:33:24;;;;;;;;;;;9.50;99.90;;;;;;5126203;27;19922;-82
2022/04/08 08:35:49;;;;;;;;;;;10.20;99.90;;;;;;5124553;27;19922;-82
2022/04/08 08:38:15;;;;;;;;;;;10.40;99.90;;;;;;5121761;27;19915;-82
2022/04/08 08:40:42;;;;;;;;;;;10.30;99.90;;;;;;5124715;27;19928;-81
2022/04/08 08:43:08;;;;;;;;;;;10.10;99.90;;;;;;5105453;27;19926;-81
2022/04/08 08:45:34;;;;;;;;;;;9.80;99.90;;;;;;5134518;27;19915;-82
2022/04/08 08:48:00;;;;;;;;;;;9.40;99.90;;;;;;5117254;27;19962;-81
2022/04/08 08:50:27;;;;;;;;;;;9.00;99.90;;;;;;5132131;27;19916;-82
2022/04/08 08:52:53;;;;;;;;;;;8.80;99.90;;;;;;5104737;27;19919;-82
2022/04/08 08:55:19;;;;;;;;;;;9.20;99.90;;;;;;5105885;27;20313;-81
2022/04/08 08:57:45;;;;;;;;;;;10.00;99.90;;;;;;5131875;27;19916;-81
2022/04/08 09:00:13;;;;;;;;;;;10.50;99.90;;;;;;5118447;27;19915;-82
2022/04/08 09:02:40;;;;;;;;;;;10.50;99.90;;;;;;5124329;27;20350;-81
2022/04/08 09:05:19;;;;;;;;;;;10.20;99.90;;;;;;5119788;27;19926;-81
2022/04/08 09:07:52;;;;;;;;;;;10.20;99.90;;;;;;5120982;27;19922;-81
2022/04/08 09:10:22;;;;;;;;;;;10.20;99.90;;;;;;5119332;27;19995;-82
2022/04/08 09:12:52;;;;;;;;;;;9.80;99.90;;;;;;5124184;27;20003;-81
2022/04/08 09:15:17;;;;;;;;;;;9.50;99.90;;;;;;5125229;27;19915;-81
2022/04/08 09:17:43;;;;;;;;;;;9.40;99.90;;;;;;5121240;27;20359;-82
2022/04/08 09:20:11;;;;;;;;;;;9.60;99.90;;;;;;5123317;27;20319;-81
2022/04/08 09:22:36;;;;;;;;;;;10.10;99.90;;;;;;5107237;27;20359;-82
2022/04/08 09:25:08;;;;;;;;;;;10.90;99.90;;;;;;5125422;27;19931;-82
2022/04/08 09:27:34;;;;;;;;;;;11.80;99.90;;;;;;5122995;27;19927;-81
2022/04/08 09:29:59;;;;;;;;;;;12.30;99.90;;;;;;5107386;27;20031;-81
2022/04/08 09:32:26;;;;;;;;;;;12.30;99.90;;;;;;5106956;27;19915;-82
2022/04/08 09:34:51;;;;;;;;;;;11.60;99.90;;;;;;5124107;27;19998;-83
2022/04/08 09:37:17;;;;;;;;;;;10.40;99.90;;;;;;5123707;27;19955;-81
2022/04/08 09:39:56;;;;;;;;;;;9.20;99.90;;;;;;5123765;27;19981;-82
2022/04/08 09:42:23;;;;;;;;;;;8.30;99.90;;;;;;5124526;27;19927;-81
2022/04/08 09:44:48;;;;;;;;;;;8.10;99.90;;;;;;5125140;27;19926;-82
2022/04/08 09:47:14;;;;;;;;;;;7.80;99.90;;;;;;5121590;27;19915;-82
2022/04/08 09:49:41;;;;;;;;;;;7.80;99.90;;;;;;5122123;27;19915;-82
2022/04/08 09:52:07;;;;;;;;;;;7.70;99.90;;;;;;5122941;27;19915;-80
2022/04/08 09:54:33;;;;;;;;;;;8.30;99.90;;;;;;5121038;27;20272;-82
2022/04/08 09:57:00;;;;;;;;;;;9.30;99.90;;;;;;5122233;27;19915;-82
2022/04/08 09:59:28;;;;;;;;;;;10.40;99.90;;;;;;5119943;27;19920;-82
2022/04/08 10:01:55;;;;;;;;;;;11.50;99.90;;;;;;5124507;27;19967;-81
2022/04/08 10:04:22;;;;;;;;;;;12.10;99.90;;;;;;5121357;27;19925;-82
2022/04/08 10:06:48;;;;;;;;;;;12.70;99.90;;;;;;5103683;27;19922;-82
2022/04/08 10:09:14;;;;;;;;;;;12.90;99.90;;;;;;5120015;27;19915;-81
2022/04/08 10:11:58;;;;;;;;;;;13.30;99.90;;;;;;5115606;27;19915;-80
2022/04/08 10:14:37;;;;;;;;;;;13.60;99.90;;;;;;5120557;27;20052;-82
2022/04/08 10:17:03;;;;;;;;;;;12.60;99.90;;;;;;5123748;27;19941;-81
2022/04/08 10:19:29;;;;;;;;;;;12.10;99.90;;;;;;5122317;27;20030;-82
2022/04/08 10:21:55;;;;;;;;;;;11.60;99.90;;;;;;5120286;27;20391;-83
2022/04/08 10:24:25;;;;;;;;;;;11.20;99.90;;;;;;5114286;27;20635;-83
2022/04/08 10:27:03;;;;;;;;;;;11.30;99.90;;;;;;5103869;27;19950;-83
2022/04/08 10:29:30;;;;;;;;;;;11.80;99.90;;;;;;5124090;27;20390;-81
2022/04/08 10:31:57;;;;;;;;;;;12.50;99.90;;;;;;5119325;27;19919;-82
2022/04/08 10:34:23;;;;;;;;;;;13.00;99.90;;;;;;5123391;27;20321;-81
2022/04/08 10:36:48;;;;;;;;;;;12.50;99.90;;;;;;5100316;28;19998;-81
2022/04/08 10:39:14;;;;;;;;;;;12.10;99.90;;;;;;5116753;27;20316;-82
2022/04/08 10:41:46;;;;;;;;;;;12.30;99.90;;;;;;5124066;27;19964;-81
2022/04/08 10:44:12;;;;;;;;;;;12.70;99.90;;;;;;5121900;27;19974;-81
2022/04/08 10:46:47;;;;;;;;;;;12.80;99.90;;;;;;5123611;27;20404;-82
2022/04/08 10:49:13;;;;;;;;;;;12.60;99.90;;;;;;5123097;27;19994;-81
2022/04/08 10:51:43;;;;;;;;;;;11.70;99.90;;;;;;5133988;27;19958;-80
2022/04/08 10:54:09;;;;;;;;;;;10.80;99.90;;;;;;5123993;27;19920;-81
2022/04/08 10:56:34;;;;;;;;;;;10.20;99.90;;;;;;5122036;27;19915;-80
2022/04/08 10:59:00;;;;;;;;;;;9.90;99.90;;;;;;5120268;27;20028;-82
2022/04/08 11:01:26;;;;;;;;;;;9.60;99.90;;;;;;5106244;27;19922;-81
2022/04/08 11:03:52;;;;;;;;;;;9.60;99.90;;;;;;5118304;27;19924;-82
2022/04/08 11:06:19;;;;;;;;;;;9.70;99.90;;;;;;5121425;27;19915;-82
2022/04/08 11:08:44;;;;;;;;;;;10.20;99.90;;;;;;5116869;27;19915;-82
2022/04/08 11:11:11;;;;;;;;;;;10.80;99.90;;;;;;5119465;27;19958;-82
2022/04/08 11:13:41;;;;;;;;;;;11.20;99.90;;;;;;5120694;27;19916;-81
2022/04/08 11:16:07;;;;;;;;;;;11.20;99.90;;;;;;5117052;27;19916;-82
2022/04/08 11:18:32;;;;;;;;;;;11.10;99.90;;;;;;5120275;27;20378;-82
2022/04/08 11:20:58;;;;;;;;;;;10.80;99.90;;;;;;5122698;27;19915;-81
2022/04/08 11:23:34;;;;;;;;;;;10.60;99.90;;;;;;5101527;27;19972;-82
2022/04/08 11:26:10;;;;;;;;;;;10.60;99.90;;;;;;5121885;27;19920;-82
2022/04/08 11:28:35;;;;;;;;;;;10.50;99.90;;;;;;5121992;27;19926;-81
2022/04/08 11:31:01;;;;;;;;;;;10.60;99.90;;;;;;5119941;27;20305;-81
2022/04/08 11:33:30;;;;;;;;;;;10.80;99.90;;;;;;5115467;27;19916;-82
2022/04/08 11:35:57;;;;;;;;;;;10.70;99.90;;;;;;5113014;27;19938;-81
2022/04/08 11:38:23;;;;;;;;;;;10.80;99.90;;;;;;5122097;27;20363;-81
2022/04/08 11:40:48;;;;;;;;;;;10.70;99.90;;;;;;5122382;27;19965;-82
2022/04/08 11:43:18;;;;;;;;;;;10.70;99.90;;;;;;5113993;27;19964;-82
2022/04/08 11:45:44;;;;;;;;;;;10.90;99.90;;;;;;5113645;27;20390;-82
2022/04/08 11:48:15;;;;;;;;;;;11.50;99.90;;;;;;5096829;28;20414;-82
2022/04/08 11:50:42;;;;;;;;;;;12.00;99.90;;;;;;5119033;27;19916;-84
2022/04/08 11:53:15;;;;;;;;;;;12.60;99.90;;;;;;5102716;27;20277;-82
2022/04/08 11:55:51;;;;;;;;;;;12.80;99.90;;;;;;5120020;27;19915;-83
2022/04/08 11:58:19;;;;;;;;;;;12.80;99.90;;;;;;5119710;27;20370;-81
2022/04/08 12:00:49;;;;;;;;;;;12.60;99.90;;;;;;5121479;27;19995;-81
2022/04/08 12:03:21;;;;;;;;;;;12.80;99.90;;;;;;5123350;27;20379;-82
2022/04/08 12:05:48;;;;;;;;;;;12.60;99.90;;;;;;5095965;27;20057;-82
2022/04/08 12:08:14;;;;;;;;;;;12.40;99.90;;;;;;5116248;28;20044;-82
2022/04/08 12:10:40;;;;;;;;;;;12.10;99.90;;;;;;5115895;28;20324;-82
2022/04/08 12:13:17;;;;;;;;;;;11.60;99.90;;;;;;5121510;28;19919;-82
2022/04/08 12:15:43;;;;;;;;;;;11.40;99.90;;;;;;5098987;28;19920;-81
2022/04/08 12:18:09;;;;;;;;;;;11.00;99.90;;;;;;5122888;28;19915;-81
2022/04/08 12:20:37;;;;;;;;;;;10.90;99.90;;;;;;5103798;28;19922;-81
2022/04/08 12:23:03;;;;;;;;;;;10.90;99.90;;;;;;5130845;28;19945;-82
2022/04/08 12:25:30;;;;;;;;;;;11.20;99.90;;;;;;5120337;27;20006;-81
2022/04/08 12:27:57;;;;;;;;;;;11.50;99.90;;;;;;5100697;28;20266;-81
2022/04/08 12:30:28;;;;;;;;;;;11.80;99.90;;;;;;5114106;28;20007;-81
2022/04/08 12:32:53;;;;;;;;;;;11.60;99.90;;;;;;5118427;28;19915;-82
2022/04/08 12:35:20;;;;;;;;;;;11.40;99.90;;;;;;5098313;28;19916;-81
2022/04/08 12:37:46;;;;;;;;;;;11.30;99.90;;;;;;5122328;28;19922;-81
2022/04/08 12:40:12;;;;;;;;;;;11.30;99.90;;;;;;5120910;28;19915;-81
2022/04/08 12:42:38;;;;;;;;;;;11.90;99.90;;;;;;5124026;28;19960;-82
2022/04/08 12:45:05;;;;;;;;;;;12.10;99.90;;;;;;5118009;28;19919;-81
2022/04/08 12:47:31;;;;;;;;;;;12.20;99.90;;;;;;5115580;28;19923;-80
2022/04/08 12:49:57;;;;;;;;;;;12.50;99.90;;;;;;5130943;27;19915;-81
2022/04/08 12:52:23;;;;;;;;;;;12.80;99.90;;;;;;5121906;28;19920;-80
2022/04/08 12:54:51;;;;;;;;;;;12.70;99.90;;;;;;5104121;28;20019;-78
2022/04/08 12:57:20;;;;;;;;;;;12.90;99.90;;;;;;5125513;27;19915;-79
2022/04/08 12:59:47;;;;;;;;;;;13.10;99.90;;;;;;5118983;28;20351;-80
2022/04/08 13:02:12;;;;;;;;;;;13.10;99.90;;;;;;5124886;27;19965;-80
2022/04/08 13:04:38;;;;;;;;;;;12.90;99.90;;;;;;5123957;27;19919;-80
2022/04/08 13:07:07;;;;;;;;;;;13.20;99.90;;;;;;5128927;27;19915;-80
2022/04/08 13:09:36;;;;;;;;;;;13.40;99.90;;;;;;5102135;28;20002;-81
2022/04/08 13:12:02;;;;;;;;;;;13.50;99.90;;;;;;5129337;27;19916;-80
2022/04/08 13:14:28;;;;;;;;;;;13.30;99.90;;;;;;5127480;27;20248;-81
2022/04/08 13:16:53;;;;;;;;;;;13.40;99.90;;;;;;5128788;27;19916;-81
2022/04/08 13:19:19;;;;;;;;;;;13.70;99.90;;;;;;5122963;27;20363;-80
2022/04/08 13:21:44;;;;;;;;;;;13.60;99.90;;;;;;5102344;28;19931;-80
2022/04/08 13:24:10;;;;;;;;;;;13.60;99.90;;;;;;5131360;27;19944;-80
2022/04/08 13:26:35;;;;;;;;;;;13.40;99.90;;;;;;5126832;27;19922;-80
2022/04/08 13:29:01;;;;;;;;;;;13.20;99.90;;;;;;5121585;27;19998;-79
2022/04/08 13:31:27;;;;;;;;;;;13.40;99.90;;;;;;5126041;27;19961;-80
2022/04/08 13:33:53;;;;;;;;;;;13.50;99.90;;;;;;5125141;27;19920;-80
2022/04/08 13:36:18;;;;;;;;;;;13.10;99.90;;;;;;5120107;27;19922;-80
2022/04/08 13:38:44;;;;;;;;;;;12.80;99.90;;;;;;5119550;27;19923;-80
2022/04/08 13:41:09;;;;;;;;;;;12.20;99.90;;;;;;5123631;27;20397;-80
2022/04/08 13:43:35;;;;;;;;;;;12.00;99.90;;;;;;5120856;27;20337;-80
2022/04/08 13:46:01;;;;;;;;;;;12.10;99.90;;;;;;5101927;28;19915;-80
2022/04/08 13:48:26;;;;;;;;;;;12.20;99.90;;;;;;5128189;27;19961;-80
2022/04/08 13:50:52;;;;;;;;;;;12.30;99.90;;;;;;5114395;27;19921;-80
2022/04/08 13:53:17;;;;;;;;;;;12.20;99.90;;;;;;5125714;27;20270;-79
2022/04/08 13:55:43;;;;;;;;;;;12.30;99.90;;;;;;5113143;28;19919;-80
2022/04/08 13:58:09;;;;;;;;;;;12.10;99.90;;;;;;5127279;27;19915;-80